Time;durP1;ratioP1;P1;durP2;ratioP2;P2;SDS_P1;SDS_P2;PMS_P1;PMS_P2;Temp;Humidity;BMP_temperature;BMP_pressure;BME280_temperature;BME280_humidity;BME280_pressure;Samples;Min_cycle;Max_cycle;Signal;HPM_P1;HPM_P2
2023/08/18 00:00:24;;;;;;;11.50;9.45;;;19.80;99.90;;;;;;5072510;28;20123;-76
2023/08/18 00:02:50;;;;;;;11.02;8.23;;;19.70;99.90;;;;;;5072840;28;20094;-72
2023/08/18 00:05:16;;;;;;;11.05;8.93;;;19.60;99.90;;;;;;5072043;28;20501;-72
2023/08/18 00:07:42;;;;;;;10.13;8.25;;;19.60;99.90;;;;;;5073069;28;20056;-71
2023/08/18 00:10:08;;;;;;;11.63;9.15;;;19.70;99.90;;;;;;5073241;28;20524;-75
2023/08/18 00:12:34;;;;;;;10.48;8.63;;;19.70;99.90;;;;;;5073105;28;20058;-72
2023/08/18 00:15:01;;;;;;;13.68;9.93;;;19.60;99.90;;;;;;5073082;28;20056;-75
2023/08/18 00:17:27;;;;;;;11.77;8.48;;;19.60;99.90;;;;;;5073138;28;20084;-75
2023/08/18 00:19:52;;;;;;;13.88;9.18;;;19.70;99.90;;;;;;5073062;28;20457;-75
2023/08/18 00:22:18;;;;;;;11.38;8.85;;;19.70;99.90;;;;;;5071578;28;20498;-75
2023/08/18 00:24:44;;;;;;;10.63;8.93;;;19.60;99.90;;;;;;5069878;28;20481;-75
2023/08/18 00:27:09;;;;;;;14.25;9.27;;;19.60;99.90;;;;;;5072164;28;20717;-72
2023/08/18 00:29:36;;;;;;;11.85;8.73;;;19.60;99.90;;;;;;5072642;28;20013;-72
2023/08/18 00:32:02;;;;;;;12.02;9.50;;;19.50;99.90;;;;;;5073227;28;20025;-75
2023/08/18 00:34:28;;;;;;;9.88;8.45;;;19.50;99.90;;;;;;5071599;28;20023;-75
2023/08/18 00:36:53;;;;;;;10.73;9.63;;;19.50;99.90;;;;;;5071704;28;20382;-72
2023/08/18 00:39:19;;;;;;;20.48;10.63;;;19.50;99.90;;;;;;5072659;28;20052;-75
2023/08/18 00:41:45;;;;;;;10.65;9.55;;;19.50;99.90;;;;;;5072700;28;20068;-72
2023/08/18 00:44:10;;;;;;;12.15;9.10;;;19.50;99.90;;;;;;5072410;28;20037;-72
2023/08/18 00:46:37;;;;;;;10.32;9.23;;;19.40;99.90;;;;;;5072828;28;20024;-75
2023/08/18 00:49:05;;;;;;;14.38;10.02;;;19.40;99.90;;;;;;5072398;28;20052;-72
2023/08/18 00:51:33;;;;;;;14.45;9.82;;;19.40;99.90;;;;;;5072933;28;20040;-75
2023/08/18 00:53:59;;;;;;;12.73;9.82;;;19.50;99.90;;;;;;5072433;28;20024;-72
2023/08/18 00:56:25;;;;;;;10.50;9.40;;;19.50;99.90;;;;;;5072867;28;20539;-72
2023/08/18 00:58:52;;;;;;;11.70;8.93;;;19.50;99.90;;;;;;5072414;28;20025;-73
2023/08/18 01:01:17;;;;;;;11.43;9.55;;;19.50;99.90;;;;;;5071405;28;20036;-72
2023/08/18 01:03:44;;;;;;;11.77;9.55;;;19.50;99.90;;;;;;5072501;28;20387;-72
2023/08/18 01:06:10;;;;;;;11.38;9.80;;;19.40;99.90;;;;;;5072118;28;20067;-72
2023/08/18 01:08:36;;;;;;;13.13;9.40;;;19.40;99.90;;;;;;5072358;28;20431;-75
2023/08/18 01:11:41;;;;;;;12.07;8.90;;;19.40;99.90;;;;;;5071173;28;20070;-75
2023/08/18 01:14:27;;;;;;;12.68;9.15;;;19.50;99.90;;;;;;5070737;28;20044;-72
2023/08/18 01:17:01;;;;;;;13.18;9.80;;;19.40;99.90;;;;;;5072435;28;20127;-72
2023/08/18 01:19:28;;;;;;;13.00;8.88;;;19.50;99.90;;;;;;5072272;28;20017;-72
2023/08/18 01:21:57;;;;;;;12.07;8.90;;;19.40;99.90;;;;;;5072588;28;20070;-72
2023/08/18 01:24:24;;;;;;;11.75;9.57;;;19.40;99.90;;;;;;5072182;28;20089;-72
2023/08/18 01:26:51;;;;;;;12.55;9.93;;;19.40;99.90;;;;;;5072596;28;20020;-72
2023/08/18 01:29:18;;;;;;;19.42;10.05;;;19.40;99.90;;;;;;5072136;28;20071;-75
2023/08/18 01:31:46;;;;;;;12.20;9.15;;;19.30;99.90;;;;;;5072357;28;20029;-72
2023/08/18 01:34:15;;;;;;;11.73;9.20;;;19.20;99.90;;;;;;5070448;28;20021;-72
2023/08/18 01:36:43;;;;;;;11.82;9.60;;;19.20;99.90;;;;;;5072456;28;20027;-75
2023/08/18 01:39:11;;;;;;;12.13;9.38;;;19.20;99.90;;;;;;5072002;28;20021;-75
2023/08/18 01:41:37;;;;;;;14.23;9.57;;;19.10;99.90;;;;;;5072195;28;20414;-75
2023/08/18 01:44:06;;;;;;;13.25;10.55;;;19.20;99.90;;;;;;5071894;28;20469;-75
2023/08/18 01:46:32;;;;;;;10.80;9.70;;;19.00;99.90;;;;;;5072074;28;20490;-73
2023/08/18 01:48:57;;;;;;;10.48;9.38;;;19.00;99.90;;;;;;5072063;28;20027;-75
2023/08/18 01:51:23;;;;;;;12.25;8.93;;;19.00;99.90;;;;;;5071996;28;20102;-72
2023/08/18 01:53:49;;;;;;;10.98;9.75;;;19.00;99.90;;;;;;5058816;28;20017;-72
2023/08/18 01:56:14;;;;;;;12.88;9.45;;;19.00;99.90;;;;;;5070766;28;20497;-72
2023/08/18 01:58:41;;;;;;;12.57;10.18;;;18.90;99.90;;;;;;5072011;28;20112;-75
2023/08/18 02:01:07;;;;;;;12.00;9.27;;;18.90;99.90;;;;;;5070729;28;20024;-75
2023/08/18 02:03:32;;;;;;;12.27;9.25;;;18.90;99.90;;;;;;5070564;28;20548;-73
2023/08/18 02:05:58;;;;;;;11.32;8.80;;;18.80;99.90;;;;;;5072019;28;20024;-72
2023/08/18 02:08:24;;;;;;;13.15;9.00;;;18.80;99.90;;;;;;5071405;28;20029;-72
2023/08/18 02:10:49;;;;;;;10.77;9.68;;;18.80;99.90;;;;;;5071925;28;20020;-72
2023/08/18 02:13:15;;;;;;;12.23;9.43;;;18.80;99.90;;;;;;5074734;28;20025;-74
2023/08/18 02:15:44;;;;;;;11.23;9.23;;;18.80;99.90;;;;;;5073998;28;20056;-72
2023/08/18 02:18:09;;;;;;;11.38;9.52;;;18.70;99.90;;;;;;5075335;28;20039;-76
2023/08/18 02:20:36;;;;;;;10.50;9.38;;;18.70;99.90;;;;;;5074102;28;20103;-76
2023/08/18 02:23:02;;;;;;;11.18;9.75;;;18.60;99.90;;;;;;5065751;28;20055;-75
2023/08/18 02:25:27;;;;;;;12.43;9.52;;;18.60;99.90;;;;;;5075241;28;20450;-73
2023/08/18 02:27:53;;;;;;;12.30;9.90;;;18.60;99.90;;;;;;5075170;28;20103;-72
2023/08/18 02:30:18;;;;;;;10.95;9.50;;;18.60;99.90;;;;;;5074790;28;20062;-72
2023/08/18 02:32:44;;;;;;;15.05;10.95;;;18.70;99.90;;;;;;5073816;28;20027;-76
2023/08/18 02:35:10;;;;;;;12.38;10.35;;;18.70;99.90;;;;;;5075034;28;20482;-72
2023/08/18 02:37:35;;;;;;;12.00;9.52;;;18.70;99.90;;;;;;5061933;28;20017;-76
2023/08/18 02:40:01;;;;;;;13.25;10.63;;;18.60;99.90;;;;;;5074831;28;20020;-72
2023/08/18 02:42:26;;;;;;;13.00;9.23;;;18.60;99.90;;;;;;5074994;28;20012;-72
2023/08/18 02:44:52;;;;;;;12.15;8.88;;;18.60;99.90;;;;;;5074864;28;20032;-75
2023/08/18 02:47:18;;;;;;;14.38;10.85;;;18.60;99.90;;;;;;5074883;28;20020;-76
2023/08/18 02:49:46;;;;;;;12.23;10.15;;;18.60;99.90;;;;;;5073592;28;20550;-75
2023/08/18 02:52:12;;;;;;;16.52;10.40;;;18.60;99.90;;;;;;5060659;28;20031;-72
2023/08/18 02:54:37;;;;;;;13.00;10.80;;;18.60;99.90;;;;;;5074704;28;20401;-75
2023/08/18 02:57:03;;;;;;;11.27;10.18;;;18.60;99.90;;;;;;5074664;28;20032;-75
2023/08/18 02:59:29;;;;;;;12.82;9.65;;;18.50;99.90;;;;;;5074581;28;20021;-72
2023/08/18 03:01:54;;;;;;;13.90;10.50;;;18.50;99.90;;;;;;5074744;28;20078;-75
2023/08/18 03:04:20;;;;;;;13.70;10.52;;;18.50;99.90;;;;;;5073064;28;20493;-72
2023/08/18 03:06:45;;;;;;;15.25;11.25;;;18.40;99.90;;;;;;5074576;28;20034;-72
2023/08/18 03:09:11;;;;;;;12.70;10.50;;;18.40;99.90;;;;;;5074217;28;20032;-75
2023/08/18 03:11:37;;;;;;;15.48;10.02;;;18.40;99.90;;;;;;5073246;28;20025;-75
2023/08/18 03:14:04;;;;;;;16.63;11.45;;;18.30;99.90;;;;;;5074191;28;20023;-76
2023/08/18 03:16:30;;;;;;;15.02;10.70;;;18.30;99.90;;;;;;5074251;28;20048;-72
2023/08/18 03:18:56;;;;;;;13.20;10.13;;;18.30;99.90;;;;;;5074163;28;20500;-73
2023/08/18 03:21:21;;;;;;;12.18;10.07;;;18.30;99.90;;;;;;5074433;28;20021;-75
2023/08/18 03:23:47;;;;;;;13.55;10.27;;;18.30;99.90;;;;;;5071815;28;20032;-73
2023/08/18 03:26:12;;;;;;;15.57;11.75;;;18.30;99.90;;;;;;5074161;28;20024;-76
2023/08/18 03:28:38;;;;;;;16.85;10.80;;;18.30;99.90;;;;;;5072311;28;20032;-73
2023/08/18 03:31:06;;;;;;;13.18;10.77;;;18.30;99.90;;;;;;5074019;28;20025;-75
2023/08/18 03:33:32;;;;;;;12.02;10.50;;;18.30;99.90;;;;;;5073661;28;20060;-73
2023/08/18 03:35:58;;;;;;;13.73;10.85;;;18.30;99.90;;;;;;5073652;28;20056;-75
2023/08/18 03:38:24;;;;;;;12.50;10.35;;;18.30;99.90;;;;;;5072202;28;20024;-73
2023/08/18 03:40:56;;;;;;;12.35;10.65;;;18.30;99.90;;;;;;5072110;28;20025;-76
2023/08/18 03:43:21;;;;;;;14.65;10.43;;;18.30;99.90;;;;;;5073648;28;20028;-76
2023/08/18 03:45:47;;;;;;;16.25;10.30;;;18.30;99.90;;;;;;5073753;28;20024;-76
2023/08/18 03:48:13;;;;;;;14.50;10.85;;;18.30;99.90;;;;;;5072717;28;20025;-73
2023/08/18 03:50:39;;;;;;;12.50;10.25;;;18.30;99.90;;;;;;5073791;28;20013;-72
2023/08/18 03:53:05;;;;;;;14.25;11.07;;;18.30;99.90;;;;;;5073219;28;20017;-76
2023/08/18 03:55:30;;;;;;;12.63;9.77;;;18.20;99.90;;;;;;5073639;28;20020;-73
2023/08/18 03:57:56;;;;;;;12.77;9.75;;;18.20;99.90;;;;;;5073342;28;20047;-76
2023/08/18 04:00:21;;;;;;;16.08;10.68;;;18.20;99.90;;;;;;5073488;28;20013;-72
2023/08/18 04:02:47;;;;;;;13.15;10.68;;;18.10;99.90;;;;;;5073262;28;20016;-76
2023/08/18 04:05:13;;;;;;;13.98;9.55;;;18.10;99.90;;;;;;5073389;28;20120;-73
2023/08/18 04:07:39;;;;;;;15.23;10.95;;;18.10;99.90;;;;;;5072969;28;20021;-76
2023/08/18 04:10:06;;;;;;;14.45;10.88;;;18.10;99.90;;;;;;5071931;28;20031;-73
2023/08/18 04:12:31;;;;;;;11.57;9.60;;;18.10;99.90;;;;;;5073175;28;20031;-76
2023/08/18 04:14:57;;;;;;;14.10;10.30;;;18.10;99.90;;;;;;5071813;28;20020;-73
2023/08/18 04:17:23;;;;;;;14.73;10.13;;;18.20;99.90;;;;;;5071614;28;20082;-76
2023/08/18 04:19:48;;;;;;;12.77;9.98;;;18.20;99.90;;;;;;5073098;28;20028;-73
2023/08/18 04:22:14;;;;;;;15.77;11.75;;;18.20;99.90;;;;;;5072959;28;20023;-76
2023/08/18 04:24:40;;;;;;;21.17;12.65;;;18.20;99.90;;;;;;5073019;28;20032;-75
2023/08/18 04:27:05;;;;;;;17.42;11.30;;;18.10;99.90;;;;;;5072651;28;20069;-76
2023/08/18 04:29:31;;;;;;;17.25;12.20;;;18.20;99.90;;;;;;5073096;28;20016;-76
2023/08/18 04:31:56;;;;;;;11.18;9.60;;;18.20;99.90;;;;;;5072667;28;20028;-72
2023/08/18 04:34:22;;;;;;;12.40;11.05;;;18.30;99.90;;;;;;5072632;28;20488;-73
2023/08/18 04:36:48;;;;;;;16.92;12.35;;;18.40;99.90;;;;;;5071400;28;20082;-72
2023/08/18 04:39:14;;;;;;;17.45;12.77;;;18.60;99.90;;;;;;5072795;28;20102;-76
2023/08/18 04:41:40;;;;;;;13.57;11.73;;;18.70;99.90;;;;;;5072291;28;20032;-73
2023/08/18 04:44:06;;;;;;;15.50;10.82;;;18.80;99.90;;;;;;5071471;28;20402;-73
2023/08/18 04:46:31;;;;;;;13.60;10.95;;;18.90;99.90;;;;;;5072772;28;20054;-76
2023/08/18 04:48:57;;;;;;;12.95;10.80;;;18.90;99.90;;;;;;5071412;28;20027;-76
2023/08/18 04:51:23;;;;;;;14.18;10.57;;;19.00;99.90;;;;;;5072571;28;20025;-76
2023/08/18 04:53:50;;;;;;;14.95;11.57;;;19.20;99.90;;;;;;5072430;28;20031;-76
2023/08/18 04:56:15;;;;;;;16.17;10.30;;;19.20;99.90;;;;;;5072623;28;20466;-76
2023/08/18 04:58:41;;;;;;;11.52;10.20;;;19.30;99.90;;;;;;5070238;28;20066;-76
2023/08/18 05:01:08;;;;;;;13.15;10.55;;;19.40;99.90;;;;;;5064286;28;20021;-76
2023/08/18 05:03:33;;;;;;;12.27;10.95;;;19.50;99.90;;;;;;5072238;28;20527;-76
2023/08/18 05:06:11;;;;;;;11.88;9.25;;;19.60;99.90;;;;;;5071892;28;20016;-76
2023/08/18 05:08:39;;;;;;;14.93;10.80;;;19.70;99.90;;;;;;5058706;28;20029;-73
2023/08/18 05:11:07;;;;;;;46.35;41.15;;;19.80;99.90;;;;;;5071869;28;20032;-73
2023/08/18 05:13:33;;;;;;;12.25;10.98;;;19.90;99.90;;;;;;5072529;28;20067;-76
2023/08/18 05:16:03;;;;;;;12.82;10.43;;;20.00;99.90;;;;;;5070368;28;20182;-76
2023/08/18 05:18:29;;;;;;;15.52;11.88;;;20.00;99.90;;;;;;5071042;28;20059;-77
2023/08/18 05:20:58;;;;;;;12.95;10.98;;;20.10;99.90;;;;;;5070413;28;20025;-77
2023/08/18 05:23:25;;;;;;;14.57;10.00;;;20.20;99.90;;;;;;5072165;28;20021;-73
2023/08/18 05:25:54;;;;;;;14.52;10.07;;;20.20;99.90;;;;;;5070744;28;20119;-73
2023/08/18 05:28:21;;;;;;;11.43;10.23;;;20.20;99.90;;;;;;5073257;28;20043;-73
2023/08/18 05:30:47;;;;;;;12.73;9.90;;;20.30;99.90;;;;;;5069284;28;20029;-76
2023/08/18 05:33:14;;;;;;;10.90;9.80;;;20.50;99.90;;;;;;5067860;28;20613;-73
2023/08/18 05:35:40;;;;;;;13.88;10.55;;;20.70;99.90;;;;;;5067755;28;20031;-72
2023/08/18 05:38:11;;;;;;;10.50;9.30;;;20.80;99.90;;;;;;5069735;28;20025;-73
2023/08/18 05:40:43;;;;;;;11.30;9.77;;;20.90;99.90;;;;;;5069683;28;20029;-74
2023/08/18 05:43:09;;;;;;;14.13;9.20;;;21.00;99.90;;;;;;5069839;28;20060;-73
2023/08/18 05:45:38;;;;;;;12.98;9.07;;;21.20;99.90;;;;;;5068408;28;20102;-73
2023/08/18 05:48:04;;;;;;;12.65;10.27;;;21.30;99.90;;;;;;5072248;28;20025;-73
2023/08/18 05:50:31;;;;;;;13.32;8.68;;;21.30;99.90;;;;;;5071077;28;20037;-73
2023/08/18 05:52:57;;;;;;;10.98;8.43;;;21.40;99.90;;;;;;5071375;28;20036;-73
2023/08/18 05:55:23;;;;;;;9.35;8.45;;;21.40;99.90;;;;;;5073130;28;20020;-73
2023/08/18 05:57:49;;;;;;;13.50;8.90;;;21.50;99.90;;;;;;5072593;28;20074;-73
2023/08/18 06:00:15;;;;;;;12.10;8.80;;;21.60;99.90;;;;;;5073583;28;20036;-76
2023/08/18 06:02:42;;;;;;;9.63;8.40;;;21.70;99.90;;;;;;5072564;28;20035;-77
2023/08/18 06:05:11;;;;;;;12.18;8.48;;;21.80;99.90;;;;;;5073612;28;20037;-73
2023/08/18 06:07:40;;;;;;;10.82;8.98;;;22.00;99.90;;;;;;5056856;28;20405;-77
2023/08/18 06:10:07;;;;;;;10.10;8.48;;;22.20;99.90;;;;;;5073178;28;20039;-77
2023/08/18 06:12:33;;;;;;;11.48;8.27;;;22.30;99.90;;;;;;5075277;28;20029;-77
2023/08/18 06:14:59;;;;;;;8.90;8.00;;;22.50;99.90;;;;;;5076149;28;20027;-77
2023/08/18 06:17:25;;;;;;;7.68;6.97;;;22.60;99.90;;;;;;5075125;28;20045;-77
2023/08/18 06:19:50;;;;;;;11.05;8.27;;;22.60;99.90;;;;;;5075133;28;20028;-77
2023/08/18 06:22:16;;;;;;;10.23;7.32;;;22.80;99.90;;;;;;5073694;28;20107;-77
2023/08/18 06:24:41;;;;;;;9.05;7.30;;;23.00;99.90;;;;;;5082044;28;20028;-77
2023/08/18 06:27:07;;;;;;;8.63;7.18;;;23.10;99.90;;;;;;5074955;28;20048;-79
2023/08/18 06:29:33;;;;;;;9.38;7.15;;;23.10;99.90;;;;;;5075015;28;20016;-78
2023/08/18 06:31:58;;;;;;;7.60;6.80;;;23.30;99.90;;;;;;5074488;28;20514;-75
2023/08/18 06:34:24;;;;;;;8.02;7.22;;;23.60;98.20;;;;;;5074067;28;20024;-75
2023/08/18 06:36:50;;;;;;;9.32;6.95;;;23.60;96.00;;;;;;5075344;28;20505;-76
2023/08/18 06:39:16;;;;;;;8.63;6.78;;;23.70;95.50;;;;;;5072721;28;20036;-76
2023/08/18 06:41:42;;;;;;;8.18;6.68;;;23.80;96.00;;;;;;5081559;28;20607;-78
2023/08/18 06:44:08;;;;;;;7.80;7.00;;;23.90;96.10;;;;;;5069916;28;20135;-75
2023/08/18 06:46:34;;;;;;;7.18;6.47;;;23.90;93.00;;;;;;5073615;28;20170;-75
2023/08/18 06:49:02;;;;;;;8.52;6.82;;;24.00;92.40;;;;;;5073753;28;20044;-75
2023/08/18 06:51:28;;;;;;;7.82;7.03;;;24.00;88.70;;;;;;5074525;28;20158;-75
2023/08/18 06:53:53;;;;;;;7.80;6.90;;;24.10;90.40;;;;;;5076182;28;20099;-76
2023/08/18 06:56:19;;;;;;;7.95;6.88;;;24.00;90.80;;;;;;5072974;28;20158;-75
2023/08/18 06:58:45;;;;;;;8.27;6.65;;;24.00;91.80;;;;;;5073038;28;20029;-78
2023/08/18 07:01:10;;;;;;;11.30;7.63;;;24.20;90.70;;;;;;5074571;28;20544;-78
2023/08/18 07:03:36;;;;;;;9.77;7.20;;;24.30;89.20;;;;;;5082427;28;20451;-79
2023/08/18 07:06:02;;;;;;;8.68;7.25;;;24.40;90.70;;;;;;5074452;28;20100;-78
2023/08/18 07:08:28;;;;;;;7.90;7.10;;;24.50;87.20;;;;;;5073129;28;20024;-79
2023/08/18 07:10:54;;;;;;;8.75;7.95;;;24.60;88.70;;;;;;5076617;28;20024;-79
2023/08/18 07:13:21;;;;;;;12.82;6.95;;;24.50;87.10;;;;;;5074011;28;20025;-78
2023/08/18 07:15:47;;;;;;;10.68;7.30;;;24.70;87.30;;;;;;5069812;28;20028;-79
2023/08/18 07:18:13;;;;;;;8.75;6.97;;;24.80;86.00;;;;;;5073032;28;20397;-79
2023/08/18 07:20:42;;;;;;;12.07;7.88;;;24.70;84.90;;;;;;5073689;28;20017;-79
2023/08/18 07:23:08;;;;;;;8.20;6.88;;;24.70;86.90;;;;;;5072068;28;20052;-79
2023/08/18 07:25:34;;;;;;;9.38;6.68;;;24.90;88.70;;;;;;5073520;28;20482;-79
2023/08/18 07:27:59;;;;;;;8.52;7.72;;;25.10;83.00;;;;;;5074684;28;20079;-78
2023/08/18 07:30:25;;;;;;;8.00;7.20;;;25.20;83.80;;;;;;5078196;28;20148;-76
2023/08/18 07:32:51;;;;;;;9.20;7.22;;;25.30;81.60;;;;;;5072870;28;20021;-77
2023/08/18 07:35:16;;;;;;;8.05;7.30;;;25.20;82.60;;;;;;5070714;28;20402;-76
2023/08/18 07:37:42;;;;;;;8.15;7.38;;;25.20;82.10;;;;;;5072977;28;20071;-76
2023/08/18 07:40:09;;;;;;;9.00;7.28;;;25.10;83.30;;;;;;5071959;28;20036;-76
2023/08/18 07:42:37;;;;;;;9.35;7.07;;;25.00;83.20;;;;;;5078061;28;20085;-76
2023/08/18 07:45:03;;;;;;;9.82;7.32;;;25.20;82.40;;;;;;5072353;28;20036;-76
2023/08/18 07:47:28;;;;;;;7.38;6.40;;;25.40;81.50;;;;;;5067686;28;20048;-76
2023/08/18 07:49:54;;;;;;;7.85;7.05;;;25.50;75.70;;;;;;5071437;28;20122;-76
2023/08/18 07:52:20;;;;;;;8.13;7.15;;;25.60;76.80;;;;;;5072380;28;20020;-76
2023/08/18 07:54:45;;;;;;;8.82;6.80;;;25.70;76.30;;;;;;5070979;28;20132;-76
2023/08/18 07:57:11;;;;;;;8.10;6.90;;;25.80;73.80;;;;;;5071396;28;20027;-76
2023/08/18 07:59:37;;;;;;;9.40;7.30;;;25.90;73.40;;;;;;5072242;28;20473;-76
2023/08/18 08:02:02;;;;;;;7.25;6.50;;;25.90;71.20;;;;;;5070773;28;20035;-76
2023/08/18 08:04:28;;;;;;;8.13;7.32;;;25.90;72.00;;;;;;5066654;28;20036;-76
2023/08/18 08:06:56;;;;;;;12.52;6.43;;;26.10;72.40;;;;;;5070045;28;20047;-77
2023/08/18 08:09:24;;;;;;;11.05;6.80;;;26.30;71.50;;;;;;5067490;28;20016;-76
2023/08/18 08:11:50;;;;;;;8.10;7.35;;;26.40;71.10;;;;;;5070916;28;20099;-76
2023/08/18 08:14:17;;;;;;;8.07;7.30;;;26.40;69.60;;;;;;5069646;28;20556;-77
2023/08/18 08:16:43;;;;;;;7.47;6.78;;;26.50;69.40;;;;;;5067690;28;20052;-76
2023/08/18 08:19:10;;;;;;;8.10;7.30;;;26.50;69.70;;;;;;5068643;28;20033;-76
2023/08/18 08:21:36;;;;;;;8.98;6.82;;;26.50;69.60;;;;;;5067077;28;20024;-76
2023/08/18 08:24:03;;;;;;;7.93;7.22;;;26.50;69.80;;;;;;5069605;28;20035;-76
2023/08/18 08:26:29;;;;;;;9.10;7.50;;;26.40;71.00;;;;;;5071542;28;20040;-77
2023/08/18 08:28:55;;;;;;;8.52;7.35;;;26.50;71.00;;;;;;5069624;28;20021;-77
2023/08/18 08:31:20;;;;;;;8.70;7.75;;;26.40;71.00;;;;;;5071215;28;20070;-76
2023/08/18 08:33:46;;;;;;;9.10;7.70;;;26.50;71.60;;;;;;5070624;28;20036;-76
2023/08/18 08:36:12;;;;;;;8.23;7.43;;;26.70;72.30;;;;;;5064896;28;20036;-76
2023/08/18 08:38:37;;;;;;;7.55;6.93;;;26.90;69.80;;;;;;5069962;28;20085;-77
2023/08/18 08:41:03;;;;;;;11.32;7.28;;;27.20;71.90;;;;;;5071547;28;20024;-77
2023/08/18 08:43:29;;;;;;;9.75;7.25;;;27.10;69.20;;;;;;5070839;28;20008;-76
2023/08/18 08:46:00;;;;;;;8.48;7.32;;;27.20;69.70;;;;;;5070937;28;20054;-77
2023/08/18 08:48:32;;;;;;;12.10;7.85;;;27.30;69.00;;;;;;5072299;28;20363;-77
2023/08/18 08:51:00;;;;;;;10.60;8.30;;;27.30;68.20;;;;;;5071555;28;20025;-76
2023/08/18 08:53:31;;;;;;;8.40;7.60;;;27.20;70.10;;;;;;5071399;28;20490;-77
2023/08/18 08:56:01;;;;;;;10.07;8.30;;;27.10;69.60;;;;;;5072154;28;20024;-77
2023/08/18 08:58:32;;;;;;;9.65;8.75;;;27.30;71.20;;;;;;5071237;28;20381;-77
2023/08/18 09:01:00;;;;;;;8.70;7.82;;;27.50;72.60;;;;;;5070926;28;20029;-77
2023/08/18 09:03:29;;;;;;;8.88;8.05;;;27.80;70.10;;;;;;5071866;28;20108;-77
2023/08/18 09:05:55;;;;;;;12.20;8.57;;;28.00;68.90;;;;;;5067141;28;20520;-77
2023/08/18 09:08:21;;;;;;;9.32;7.78;;;27.90;68.10;;;;;;5070971;28;20029;-78
2023/08/18 09:10:47;;;;;;;9.60;8.40;;;27.80;68.80;;;;;;5072006;28;20391;-78
2023/08/18 09:13:13;;;;;;;9.70;8.70;;;27.70;68.60;;;;;;5070480;28;20470;-77
2023/08/18 09:15:46;;;;;;;9.48;8.48;;;27.60;69.60;;;;;;5072496;28;20040;-77
2023/08/18 09:18:12;;;;;;;11.95;8.63;;;27.60;71.40;;;;;;5064321;28;20027;-77
2023/08/18 09:20:38;;;;;;;9.40;8.45;;;27.70;72.40;;;;;;5068163;28;20485;-77
2023/08/18 09:23:04;;;;;;;10.20;9.25;;;27.90;70.60;;;;;;5074643;28;20112;-77
2023/08/18 09:25:36;;;;;;;11.02;9.40;;;28.00;70.10;;;;;;5075259;28;20490;-77
2023/08/18 09:28:05;;;;;;;13.70;10.18;;;28.20;72.20;;;;;;5076343;28;20024;-75
2023/08/18 09:30:32;;;;;;;11.25;9.52;;;28.40;68.70;;;;;;5075917;28;20060;-75
2023/08/18 09:33:01;;;;;;;9.98;9.10;;;28.40;69.10;;;;;;5074536;28;20025;-75
2023/08/18 09:35:33;;;;;;;11.13;10.10;;;28.50;71.40;;;;;;5075079;28;20042;-76
2023/08/18 09:37:59;;;;;;;;;;;28.40;69.80;;;;;;5074093;28;20024;-75
2023/08/18 09:40:25;;;;;;;13.23;10.38;;;28.50;70.10;;;;;;5073915;28;20019;-75
2023/08/18 09:42:51;;;;;;;12.63;11.18;;;28.60;68.40;;;;;;5075833;28;20389;-75
2023/08/18 09:45:22;;;;;;;13.43;12.00;;;28.60;68.50;;;;;;5074058;28;20028;-76
2023/08/18 09:47:50;;;;;;;13.27;11.45;;;28.50;67.70;;;;;;5074106;28;20021;-76
2023/08/18 09:50:20;;;;;;;12.43;11.23;;;28.60;69.40;;;;;;5073753;28;20098;-76
2023/08/18 09:52:51;;;;;;;13.32;10.43;;;28.60;69.00;;;;;;5074077;28;20020;-75
2023/08/18 09:55:23;;;;;;;12.13;10.77;;;28.60;68.30;;;;;;5074238;28;20115;-76
2023/08/18 09:58:30;;;;;;;13.00;10.13;;;28.70;70.50;;;;;;5075290;28;20053;-75
2023/08/18 10:00:56;;;;;;;11.32;10.23;;;28.80;67.20;;;;;;5077055;28;20023;-76
2023/08/18 10:03:28;;;;;;;11.25;10.02;;;28.90;68.30;;;;;;5073849;28;20377;-75
2023/08/18 10:05:54;;;;;;;12.80;10.93;;;28.80;67.00;;;;;;5073708;28;20024;-75
2023/08/18 10:08:24;;;;;;;10.65;9.60;;;28.80;68.00;;;;;;5074013;28;20023;-75
2023/08/18 10:10:50;;;;;;;11.40;10.25;;;28.70;68.60;;;;;;5071173;28;20013;-75
2023/08/18 10:13:16;;;;;;;13.45;10.68;;;28.60;71.30;;;;;;5074740;28;20024;-75
2023/08/18 10:15:43;;;;;;;13.23;11.00;;;28.80;69.10;;;;;;5076948;28;20090;-75
2023/08/18 10:18:11;;;;;;;10.80;9.70;;;29.00;68.80;;;;;;5073331;28;20020;-77
2023/08/18 10:20:53;;;;;;;11.00;9.80;;;29.00;67.10;;;;;;5069566;28;20050;-77
2023/08/18 10:23:19;;;;;;;;;;;29.00;66.70;;;;;;5074381;28;20031;-75
2023/08/18 10:25:48;;;;;;;11.18;10.07;;;29.00;65.90;;;;;;5075987;28;19905;-76
2023/08/18 10:28:19;;;;;;;19.85;10.27;;;29.10;66.70;;;;;;5068920;28;20021;-75
2023/08/18 10:30:59;;;;;;;10.90;9.95;;;29.20;67.50;;;;;;5069933;28;20024;-77
2023/08/18 10:33:35;;;;;;;11.05;9.95;;;29.20;66.00;;;;;;5070481;28;20009;-77
2023/08/18 10:36:04;;;;;;;11.43;10.23;;;29.40;65.20;;;;;;5070746;28;20536;-75
2023/08/18 10:38:32;;;;;;;12.75;10.90;;;29.60;64.60;;;;;;5071666;28;20016;-77
2023/08/18 10:40:58;;;;;;;11.57;10.38;;;29.60;63.10;;;;;;5062669;28;20025;-77
2023/08/18 10:43:27;;;;;;;11.88;9.57;;;29.40;63.20;;;;;;5071548;28;20036;-77
2023/08/18 10:45:59;;;;;;;11.98;9.63;;;29.50;64.50;;;;;;5070207;28;20085;-77
2023/08/18 10:48:33;;;;;;;11.07;9.95;;;29.50;64.50;;;;;;5073600;28;20681;-75
2023/08/18 10:51:00;;;;;;;10.77;9.68;;;29.60;65.40;;;;;;5072883;28;20021;-77
2023/08/18 10:53:31;;;;;;;11.02;10.02;;;29.40;63.70;;;;;;5075473;28;20390;-75
2023/08/18 10:55:57;;;;;;;13.05;10.27;;;29.30;64.80;;;;;;5071949;28;20045;-78
2023/08/18 10:58:22;;;;;;;12.27;9.68;;;29.50;65.60;;;;;;5071194;28;20024;-77
2023/08/18 11:00:49;;;;;;;10.40;9.32;;;29.60;64.40;;;;;;5071889;28;20497;-78
2023/08/18 11:03:15;;;;;;;11.75;10.50;;;29.60;64.80;;;;;;5073258;28;20020;-75
2023/08/18 11:05:41;;;;;;;12.25;10.95;;;29.70;66.70;;;;;;5071755;28;20486;-78
2023/08/18 11:08:12;;;;;;;13.43;10.73;;;29.70;63.80;;;;;;5071592;28;20418;-77
2023/08/18 11:10:40;;;;;;;11.52;9.75;;;29.60;65.50;;;;;;5071424;28;20427;-77
2023/08/18 11:13:09;;;;;;;15.52;10.45;;;29.60;64.50;;;;;;5073610;28;20107;-76
2023/08/18 11:15:35;;;;;;;11.80;10.45;;;29.60;63.40;;;;;;5073331;28;20029;-77
2023/08/18 11:18:00;;;;;;;13.55;10.20;;;29.70;63.30;;;;;;5033028;28;1164484;-75
2023/08/18 11:20:26;;;;;;;12.70;10.60;;;29.90;64.10;;;;;;5077912;28;20027;-75
2023/08/18 11:22:53;;;;;;;11.05;9.95;;;30.10;64.90;;;;;;5073133;28;20099;-77
2023/08/18 11:25:22;;;;;;;12.50;10.23;;;30.20;63.00;;;;;;5072132;28;20032;-78
2023/08/18 11:27:49;;;;;;;10.80;9.77;;;30.20;62.40;;;;;;5073106;28;20086;-75
2023/08/18 11:30:15;;;;;;;11.35;10.02;;;30.40;61.80;;;;;;5073888;28;20385;-75
2023/08/18 11:32:42;;;;;;;11.43;10.23;;;30.40;63.00;;;;;;5073605;28;20358;-75
2023/08/18 11:35:09;;;;;;;11.65;10.52;;;30.50;62.00;;;;;;5073881;28;20055;-74
2023/08/18 11:37:42;;;;;;;13.20;10.05;;;30.60;61.80;;;;;;5073278;28;20012;-78
2023/08/18 11:40:10;;;;;;;11.65;10.60;;;30.20;60.00;;;;;;5073429;28;20033;-77
2023/08/18 11:42:44;;;;;;;13.10;11.35;;;30.00;61.10;;;;;;5073901;28;20069;-75
2023/08/18 11:45:17;;;;;;;12.25;10.45;;;29.70;61.00;;;;;;5078939;28;20540;-77
2023/08/18 11:47:47;;;;;;;13.75;10.50;;;29.30;60.90;;;;;;5063990;28;20070;-75
2023/08/18 11:50:19;;;;;;;10.38;9.48;;;29.20;62.40;;;;;;5073494;28;20449;-77
2023/08/18 11:52:46;;;;;;;11.02;9.90;;;29.20;62.00;;;;;;5064064;28;20044;-77
2023/08/18 11:55:12;;;;;;;11.43;10.27;;;29.20;63.70;;;;;;5074762;28;20062;-77
2023/08/18 11:57:46;;;;;;;14.80;13.30;;;28.90;62.10;;;;;;5072134;28;20031;-74
2023/08/18 12:00:13;;;;;;;11.15;10.05;;;29.00;63.80;;;;;;5073473;28;20052;-75
2023/08/18 12:02:46;;;;;;;10.73;9.60;;;29.10;63.10;;;;;;5072977;28;20021;-75
2023/08/18 12:05:22;;;;;;;11.98;10.60;;;29.10;63.40;;;;;;5067352;28;20025;-75
2023/08/18 12:07:52;;;;;;;10.15;9.15;;;29.00;63.10;;;;;;5073063;28;20025;-75
2023/08/18 12:10:20;;;;;;;11.52;10.43;;;29.00;65.90;;;;;;5073041;28;20017;-77
2023/08/18 12:12:56;;;;;;;11.07;9.88;;;28.90;66.40;;;;;;5071723;28;20385;-75
2023/08/18 12:15:25;;;;;;;12.63;11.40;;;28.90;67.80;;;;;;5073476;28;20029;-75
2023/08/18 12:17:50;;;;;;;12.88;10.38;;;29.00;69.00;;;;;;5071504;28;20044;-75
2023/08/18 12:20:19;;;;;;;11.95;10.63;;;29.10;67.90;;;;;;5065555;28;20166;-77
2023/08/18 12:22:46;;;;;;;12.38;11.02;;;29.30;64.50;;;;;;5070676;28;20013;-77
2023/08/18 12:25:12;;;;;;;12.40;11.00;;;29.50;64.20;;;;;;5079824;28;20032;-79
2023/08/18 12:27:38;;;;;;;12.40;10.15;;;29.70;62.90;;;;;;5073010;28;20051;-77
2023/08/18 12:30:04;;;;;;;13.07;10.65;;;29.60;62.20;;;;;;5070272;28;20082;-77
2023/08/18 12:32:30;;;;;;;9.45;8.35;;;29.40;62.50;;;;;;5071157;28;20020;-77
2023/08/18 12:34:57;;;;;;;13.40;10.25;;;29.40;61.60;;;;;;5063171;28;20106;-75